createdAt,value
2023-03-01T00:00:19.799Z,82.27
2023-03-01T00:02:46.934Z,72.80
2023-03-01T00:05:14.066Z,71.20
2023-03-01T00:07:41.196Z,73.27
2023-03-01T00:10:08.499Z,86.53
2023-03-01T00:12:37.437Z,80.43
2023-03-01T00:15:05.784Z,81.60
2023-03-01T00:17:32.969Z,107.97
2023-03-01T00:20:00.115Z,95.80
2023-03-01T00:22:29.466Z,105.20
2023-03-01T00:24:56.604Z,91.97
2023-03-01T00:27:23.725Z,91.50
2023-03-01T00:29:50.841Z,92.53
2023-03-01T00:32:18.032Z,82.73
2023-03-01T00:34:54.948Z,76.87
2023-03-01T00:37:25.336Z,81.53
2023-03-01T00:39:52.493Z,83.23
2023-03-01T00:42:19.661Z,75.23
2023-03-01T00:44:46.824Z,81.87
2023-03-01T00:47:14.888Z,74.60
2023-03-01T00:49:42.035Z,77.70
2023-03-01T00:52:09.232Z,76.83
2023-03-01T00:54:36.339Z,71.87
2023-03-01T00:57:03.466Z,75.60
2023-03-01T00:59:30.614Z,71.83
2023-03-01T01:01:57.725Z,81.80
2023-03-01T01:04:24.858Z,73.20
2023-03-01T01:06:52.040Z,77.23
2023-03-01T01:09:19.265Z,92.33
2023-03-01T01:11:49.873Z,88.60
2023-03-01T01:14:17.112Z,86.33
2023-03-01T01:16:44.313Z,84.10
2023-03-01T01:19:12.278Z,84.40
2023-03-01T01:21:39.450Z,80.87
2023-03-01T01:24:06.722Z,80.73
2023-03-01T01:26:34.659Z,84.77
2023-03-01T01:29:01.958Z,73.67
2023-03-01T01:31:29.264Z,79.63
2023-03-01T01:33:56.530Z,78.40
2023-03-01T01:36:23.804Z,79.80
2023-03-01T01:38:50.926Z,87.60
2023-03-01T01:41:18.082Z,84.03
2023-03-01T01:43:46.243Z,76.87
2023-03-01T01:46:19.402Z,86.27
2023-03-01T01:49:06.848Z,71.97
2023-03-01T01:51:39.355Z,90.43
2023-03-01T01:54:16.562Z,84.20
2023-03-01T01:56:44.406Z,72.43
2023-03-01T01:59:11.628Z,66.67
2023-03-01T02:01:38.793Z,48.57
2023-03-01T02:04:07.469Z,38.77
2023-03-01T02:06:35.945Z,33.70
2023-03-01T02:09:04.333Z,34.27
2023-03-01T02:11:31.753Z,52.03
2023-03-01T02:13:58.946Z,62.47
2023-03-01T02:16:26.126Z,59.83
2023-03-01T02:18:53.450Z,54.40
2023-03-01T02:21:23.392Z,52.40
2023-03-01T02:23:50.531Z,52.27
2023-03-01T02:26:35.622Z,54.17
2023-03-01T02:29:02.778Z,57.03
2023-03-01T02:31:45.965Z,58.83
2023-03-01T02:34:17.199Z,59.97
2023-03-01T02:36:45.775Z,55.80
2023-03-01T02:39:15.422Z,59.37
2023-03-01T02:41:43.004Z,65.33
2023-03-01T02:44:10.131Z,67.13
2023-03-01T02:46:43.153Z,78.17
2023-03-01T02:49:22.301Z,53.50
2023-03-01T02:51:58.246Z,63.70
2023-03-01T02:54:43.950Z,72.57
2023-03-01T02:57:11.177Z,50.93
2023-03-01T02:59:41.648Z,54.43
2023-03-01T03:02:09.071Z,62.27
2023-03-01T03:04:36.269Z,66.23
2023-03-01T03:07:03.386Z,56.37
2023-03-01T03:09:30.533Z,54.17
2023-03-01T03:11:57.715Z,69.30
2023-03-01T03:14:24.822Z,62.90
2023-03-01T03:16:52.009Z,67.43
2023-03-01T03:19:19.696Z,65.10
2023-03-01T03:21:46.832Z,70.30
2023-03-01T03:24:14.044Z,70.37
2023-03-01T03:26:41.217Z,70.10
2023-03-01T03:29:08.688Z,57.33
2023-03-01T03:31:35.861Z,62.27
2023-03-01T03:34:03.100Z,71.37
2023-03-01T03:36:30.459Z,62.50
2023-03-01T03:38:57.766Z,62.60
2023-03-01T03:41:24.937Z,67.13
2023-03-01T03:43:52.094Z,57.07
2023-03-01T03:46:19.278Z,53.33
2023-03-01T03:48:46.818Z,64.37
2023-03-01T03:51:14.714Z,59.97
2023-03-01T03:53:42.058Z,59.13
2023-03-01T03:56:09.381Z,73.20
2023-03-01T03:58:36.556Z,75.13
2023-03-01T04:01:03.724Z,93.17
2023-03-01T04:03:31.342Z,81.97
2023-03-01T04:05:59.132Z,76.77
2023-03-01T04:08:26.325Z,92.63
2023-03-01T04:10:54.085Z,89.97
2023-03-01T04:13:22.040Z,99.03
2023-03-01T04:15:55.444Z,117.53
2023-03-01T04:18:23.642Z,97.47
2023-03-01T04:20:53.128Z,91.37
2023-03-01T04:23:21.697Z,93.47
2023-03-01T04:25:54.599Z,91.83
2023-03-01T04:28:31.451Z,87.57
2023-03-01T04:30:59.013Z,85.03
2023-03-01T04:33:26.479Z,80.20
2023-03-01T04:35:53.800Z,75.00
2023-03-01T04:38:22.199Z,77.37
2023-03-01T04:40:49.484Z,67.77
2023-03-01T04:43:16.648Z,70.97
2023-03-01T04:45:43.988Z,70.13
2023-03-01T04:48:11.123Z,73.37
2023-03-01T04:50:38.342Z,76.03
2023-03-01T04:53:05.461Z,67.60
2023-03-01T04:55:32.734Z,61.10
2023-03-01T04:58:00.026Z,55.00
2023-03-01T05:00:27.209Z,64.73
2023-03-01T05:02:55.360Z,78.90
2023-03-01T05:05:27.323Z,85.73
2023-03-01T05:07:55.157Z,83.60
2023-03-01T05:10:22.459Z,68.73
2023-03-01T05:12:49.649Z,75.20
2023-03-01T05:15:16.844Z,76.47
2023-03-01T05:17:44.008Z,68.57
2023-03-01T05:20:11.878Z,70.60
2023-03-01T05:22:39.509Z,67.67
2023-03-01T05:25:08.146Z,74.63
2023-03-01T05:27:35.558Z,69.80
2023-03-01T05:30:14.191Z,82.27
2023-03-01T05:32:42.379Z,81.87
2023-03-01T05:35:09.586Z,75.27
2023-03-01T05:37:36.794Z,78.17
2023-03-01T05:40:04.752Z,72.27
2023-03-01T05:42:31.852Z,74.03
2023-03-01T05:44:58.967Z,71.80
2023-03-01T05:47:26.152Z,80.33
2023-03-01T05:49:53.331Z,81.27
2023-03-01T05:52:20.472Z,71.60
2023-03-01T05:54:47.676Z,98.43
2023-03-01T05:57:15.741Z,104.40
2023-03-01T05:59:43.061Z,118.77
2023-03-01T06:02:10.304Z,93.50
2023-03-01T06:04:37.424Z,91.87
2023-03-01T06:07:04.577Z,93.37
2023-03-01T06:09:31.784Z,66.57
2023-03-01T06:11:58.906Z,54.70
2023-03-01T06:14:26.069Z,53.00
2023-03-01T06:16:53.226Z,54.97
2023-03-01T06:19:20.452Z,56.20
2023-03-01T06:21:47.664Z,61.20
2023-03-01T06:24:14.806Z,67.00
2023-03-01T06:26:42.782Z,89.07
2023-03-01T06:29:09.905Z,164.77
2023-03-01T06:31:37.094Z,182.53
2023-03-01T06:34:04.343Z,178.50
2023-03-01T06:36:31.845Z,161.83
2023-03-01T06:38:59.335Z,158.43
2023-03-01T06:41:26.721Z,131.30
2023-03-01T06:43:55.396Z,124.43
2023-03-01T06:46:22.769Z,155.03
2023-03-01T06:48:51.872Z,176.87
2023-03-01T06:51:20.217Z,188.33
2023-03-01T06:53:47.754Z,179.10
2023-03-01T06:56:14.891Z,158.17
2023-03-01T06:58:42.030Z,106.37
2023-03-01T07:01:09.527Z,86.13
2023-03-01T07:03:36.689Z,90.60
2023-03-01T07:06:03.886Z,69.70
2023-03-01T07:08:31.039Z,64.17
2023-03-01T07:10:58.745Z,64.87
2023-03-01T07:13:25.956Z,63.53
2023-03-01T07:15:53.244Z,56.40
2023-03-01T07:18:20.454Z,52.93
2023-03-01T07:20:47.568Z,51.53
2023-03-01T07:23:14.746Z,51.00
2023-03-01T07:25:41.880Z,49.63
2023-03-01T07:28:09.020Z,44.20
2023-03-01T07:30:36.166Z,41.90
2023-03-01T07:33:03.480Z,46.17
2023-03-01T07:35:30.700Z,38.77
2023-03-01T07:37:57.873Z,40.60
2023-03-01T07:40:24.996Z,44.97
2023-03-01T07:42:56.603Z,46.97
2023-03-01T07:45:23.878Z,48.17
2023-03-01T07:47:51.909Z,56.07
2023-03-01T07:50:19.097Z,48.60
2023-03-01T07:52:49.446Z,44.10
2023-03-01T07:55:16.761Z,44.03
2023-03-01T07:57:44.045Z,39.60
2023-03-01T08:00:12.110Z,45.47
2023-03-01T08:02:39.803Z,41.93
2023-03-01T08:05:07.005Z,40.90
2023-03-01T08:07:34.591Z,45.37
2023-03-01T08:10:01.790Z,47.40
2023-03-01T08:12:29.146Z,43.83
2023-03-01T08:14:56.381Z,45.10
2023-03-01T08:17:23.493Z,47.70
2023-03-01T08:19:50.602Z,42.77
2023-03-01T08:22:17.781Z,40.33
2023-03-01T08:24:44.910Z,35.80
2023-03-01T08:27:13.141Z,41.00
2023-03-01T08:29:40.323Z,36.47
2023-03-01T08:32:07.572Z,33.03
2023-03-01T08:34:36.515Z,34.23
2023-03-01T08:37:03.816Z,34.80
2023-03-01T08:39:31.017Z,42.53
2023-03-01T08:41:58.497Z,42.43
2023-03-01T08:44:25.942Z,46.67
2023-03-01T08:46:55.395Z,40.17
2023-03-01T08:49:22.609Z,40.17
2023-03-01T08:51:49.962Z,45.83
2023-03-01T08:54:17.961Z,49.13
2023-03-01T08:56:45.098Z,38.83
2023-03-01T08:59:12.847Z,41.17
2023-03-01T09:01:41.072Z,32.30
2023-03-01T09:06:35.567Z,30.00
2023-03-01T09:09:02.842Z,29.20
2023-03-01T09:11:30.499Z,26.37
2023-03-01T09:13:57.676Z,30.20
2023-03-01T09:16:24.988Z,25.60
2023-03-01T09:18:52.857Z,26.40
2023-03-01T09:21:30.617Z,30.70
2023-03-01T09:24:06.180Z,25.53
2023-03-01T09:26:33.728Z,23.87
2023-03-01T09:29:01.102Z,30.77
2023-03-01T09:31:28.451Z,28.50
2023-03-01T09:33:55.903Z,33.33
2023-03-01T09:36:24.155Z,30.80
2023-03-01T09:38:51.336Z,28.60
2023-03-01T09:41:26.336Z,25.20
2023-03-01T09:43:56.433Z,28.77
2023-03-01T09:46:24.243Z,34.60
2023-03-01T09:48:51.476Z,28.27
2023-03-01T09:51:23.612Z,27.20
2023-03-01T09:53:50.724Z,29.48
2023-03-01T09:56:24.439Z,34.30
2023-03-01T09:58:54.705Z,26.88
2023-03-01T10:01:24.711Z,27.63
2023-03-01T10:03:54.651Z,28.77
2023-03-01T10:06:34.388Z,22.75
2023-03-01T10:09:04.108Z,26.63
2023-03-01T10:11:35.116Z,25.15
2023-03-01T10:14:17.569Z,14.23
2023-03-01T10:16:50.706Z,19.60
2023-03-01T10:19:44.007Z,20.63
2023-03-01T10:22:15.898Z,22.58
2023-03-01T10:24:43.072Z,21.50
2023-03-01T10:27:20.932Z,24.15
2023-03-01T10:29:50.684Z,25.75
2023-03-01T10:32:18.150Z,23.33
2023-03-01T10:34:45.407Z,23.65
2023-03-01T10:37:16.292Z,21.35
2023-03-01T10:39:58.471Z,27.25
2023-03-01T10:42:29.572Z,23.45
2023-03-01T10:44:56.739Z,24.00
2023-03-01T10:47:25.643Z,22.30
2023-03-01T10:49:57.520Z,19.33
2023-03-01T10:52:25.762Z,21.67
2023-03-01T10:55:15.923Z,20.25
2023-03-01T10:57:43.253Z,24.58
2023-03-01T11:00:18.558Z,18.40
2023-03-01T11:02:46.985Z,22.92
2023-03-01T11:05:14.133Z,21.17
2023-03-01T11:07:54.619Z,22.92
2023-03-01T11:10:25.732Z,23.50
2023-03-01T11:12:55.771Z,22.90
2023-03-01T11:15:24.570Z,18.45
2023-03-01T11:17:57.069Z,21.48
2023-03-01T11:20:37.615Z,21.65
2023-03-01T11:23:07.568Z,28.25
2023-03-01T11:25:36.238Z,22.10
2023-03-01T11:28:03.956Z,27.33
2023-03-01T11:30:33.042Z,20.67
2023-03-01T11:33:09.480Z,25.63
2023-03-01T11:35:38.640Z,20.52
2023-03-01T11:38:17.725Z,24.23
2023-03-01T11:41:00.217Z,21.83
2023-03-01T11:43:50.620Z,21.23
2023-03-01T11:46:30.115Z,19.77
2023-03-01T11:49:03.669Z,24.83
2023-03-01T11:51:33.881Z,24.48
2023-03-01T11:54:01.147Z,22.15
2023-03-01T11:56:39.786Z,23.98
2023-03-01T11:59:25.339Z,23.75
2023-03-01T12:01:55.724Z,23.33
2023-03-01T12:04:41.584Z,22.35
2023-03-01T12:07:18.013Z,24.38
2023-03-01T12:09:48.029Z,27.85
2023-03-01T12:12:27.075Z,20.42
2023-03-01T12:14:59.950Z,24.58
2023-03-01T12:17:27.402Z,28.13
2023-03-01T12:19:57.766Z,19.80
2023-03-01T12:22:27.989Z,20.60
2023-03-01T12:25:01.502Z,22.55
2023-03-01T12:27:37.929Z,23.08
2023-03-01T12:30:05.040Z,20.75
2023-03-01T12:32:36.651Z,24.75
2023-03-01T12:35:03.876Z,18.85
2023-03-01T12:37:36.836Z,19.65
2023-03-01T12:40:25.728Z,19.42
2023-03-01T12:42:58.500Z,21.23
2023-03-01T12:45:52.228Z,20.58
2023-03-01T12:48:19.383Z,21.25
2023-03-01T12:50:48.204Z,19.95
2023-03-01T12:53:22.176Z,21.63
2023-03-01T12:55:49.286Z,29.55
2023-03-01T12:58:34.131Z,37.78
2023-03-01T13:01:15.375Z,21.67
2023-03-01T13:04:01.404Z,21.85
2023-03-01T13:06:43.772Z,23.75
2023-03-01T13:09:31.204Z,20.63
2023-03-01T13:11:58.687Z,20.63
2023-03-01T13:14:25.800Z,25.30
2023-03-01T13:16:53.348Z,23.70
2023-03-01T13:19:21.114Z,23.58
2023-03-01T13:21:48.580Z,25.98
2023-03-01T13:24:28.532Z,24.88
2023-03-01T13:27:22.990Z,22.67
2023-03-01T13:29:50.186Z,22.23
2023-03-01T13:32:38.144Z,19.13
2023-03-01T13:35:17.795Z,25.70
2023-03-01T13:37:45.389Z,25.10
2023-03-01T13:40:21.766Z,28.73
2023-03-01T13:42:59.220Z,29.73
2023-03-01T13:45:38.291Z,28.42
2023-03-01T13:48:10.368Z,40.28
2023-03-01T13:50:41.745Z,32.80
2023-03-01T13:53:11.885Z,31.60
2023-03-01T13:56:05.123Z,29.50
2023-03-01T13:58:33.025Z,31.20
2023-03-01T14:01:00.290Z,29.42
2023-03-01T14:03:27.667Z,29.00
2023-03-01T14:06:13.368Z,44.10
2023-03-01T14:08:44.132Z,36.47
2023-03-01T14:11:20.317Z,33.33
2023-03-01T14:13:47.455Z,26.95
2023-03-01T14:16:19.803Z,27.15
2023-03-01T14:18:54.088Z,24.00
2023-03-01T14:21:21.198Z,26.83
2023-03-01T14:23:48.344Z,40.83
2023-03-01T14:26:15.503Z,29.65
2023-03-01T14:28:43.849Z,28.65
2023-03-01T14:31:29.950Z,26.83
2023-03-01T14:33:57.133Z,32.60
2023-03-01T14:36:31.350Z,67.53
2023-03-01T14:39:05.893Z,39.60
2023-03-01T14:41:36.388Z,42.13
2023-03-01T14:44:05.119Z,33.97
2023-03-01T14:46:39.331Z,38.53
2023-03-01T14:49:19.855Z,34.40
2023-03-01T14:52:00.665Z,36.88
2023-03-01T14:54:38.743Z,29.98
2023-03-01T14:57:05.907Z,37.78
2023-03-01T14:59:34.488Z,46.40
2023-03-01T15:02:01.835Z,44.90
2023-03-01T15:04:29.196Z,46.95
2023-03-01T15:06:56.666Z,45.50
2023-03-01T15:09:23.856Z,32.28
2023-03-01T15:11:51.033Z,41.42
2023-03-01T15:14:52.017Z,86.10
2023-03-01T15:17:22.149Z,62.33
2023-03-01T15:19:49.270Z,35.33
2023-03-01T15:22:19.239Z,93.72
2023-03-01T15:24:50.371Z,43.55
2023-03-01T15:27:19.519Z,34.55
2023-03-01T15:29:50.365Z,23.27
2023-03-01T15:32:31.311Z,20.85
2023-03-01T15:34:59.234Z,19.90
2023-03-01T15:37:41.987Z,17.70
2023-03-01T15:40:21.419Z,19.65
2023-03-01T15:42:48.594Z,21.42
2023-03-01T15:45:21.590Z,23.48
2023-03-01T15:48:09.060Z,39.72
2023-03-01T15:50:36.984Z,39.17
2023-03-01T15:53:07.781Z,39.28
2023-03-01T15:55:34.958Z,33.83
2023-03-01T15:58:03.062Z,34.30
2023-03-01T16:00:30.310Z,32.20
2023-03-01T16:02:57.532Z,27.95
2023-03-01T16:05:25.973Z,28.38
2023-03-01T16:07:53.323Z,82.80
2023-03-01T16:10:20.545Z,91.20
2023-03-01T16:12:48.460Z,96.88
2023-03-01T16:15:17.125Z,136.95
2023-03-01T16:17:44.253Z,105.97
2023-03-01T16:20:19.690Z,78.10
2023-03-01T16:22:50.272Z,81.10
2023-03-01T16:25:18.396Z,85.83
2023-03-01T16:27:46.012Z,93.17
2023-03-01T16:30:13.877Z,100.20
2023-03-01T16:32:41.557Z,91.67
2023-03-01T16:35:10.015Z,78.90
2023-03-01T16:37:37.413Z,70.97
2023-03-01T16:40:05.353Z,117.57
2023-03-01T16:42:35.840Z,101.30
2023-03-01T16:45:07.105Z,104.23
2023-03-01T16:47:38.590Z,105.63
2023-03-01T16:50:05.909Z,125.23
2023-03-01T16:52:33.232Z,96.40
2023-03-01T16:55:00.400Z,97.50
2023-03-01T16:57:27.616Z,111.73
2023-03-01T16:59:54.886Z,148.60
2023-03-01T17:02:22.063Z,107.83
2023-03-01T17:04:55.596Z,117.13
2023-03-01T17:07:23.135Z,107.20
2023-03-01T17:09:50.323Z,94.83
2023-03-01T17:12:17.533Z,94.50
2023-03-01T17:14:44.718Z,106.73
2023-03-01T17:17:12.130Z,127.83
2023-03-01T17:19:44.467Z,123.20
2023-03-01T17:22:13.863Z,124.20
2023-03-01T17:24:41.151Z,111.17
2023-03-01T17:27:08.409Z,124.83
2023-03-01T17:29:35.732Z,124.80
2023-03-01T17:32:03.115Z,111.47
2023-03-01T17:34:31.646Z,110.03
2023-03-01T17:36:58.883Z,114.60
2023-03-01T17:39:30.855Z,125.77
2023-03-01T17:41:58.657Z,130.73
2023-03-01T17:44:25.941Z,121.27
2023-03-01T17:46:53.097Z,121.40
2023-03-01T17:49:20.454Z,107.33
2023-03-01T17:51:47.593Z,104.57
2023-03-01T17:54:14.741Z,149.83
2023-03-01T17:56:42.796Z,156.00
2023-03-01T17:59:09.956Z,154.33
2023-03-01T18:01:39.876Z,151.20
2023-03-01T18:04:07.066Z,123.27
2023-03-01T18:06:34.449Z,108.50
2023-03-01T18:09:03.023Z,105.73
2023-03-01T18:11:32.495Z,105.77
2023-03-01T18:13:59.831Z,116.70
2023-03-01T18:16:28.133Z,120.23
2023-03-01T18:18:55.730Z,120.50
2023-03-01T18:21:23.668Z,158.67
2023-03-01T18:23:51.396Z,221.17
2023-03-01T18:26:22.255Z,171.90
2023-03-01T18:28:51.614Z,151.63
2023-03-01T18:31:19.011Z,139.70
2023-03-01T18:33:46.606Z,114.57
2023-03-01T18:36:19.600Z,119.53
2023-03-01T18:38:47.299Z,126.97
2023-03-01T18:41:14.467Z,162.47
2023-03-01T18:43:41.645Z,142.87
2023-03-01T18:46:08.874Z,125.67
2023-03-01T18:48:36.951Z,119.97
2023-03-01T18:51:12.539Z,128.63
2023-03-01T18:53:40.355Z,188.73
2023-03-01T18:56:09.267Z,200.63
2023-03-01T18:58:39.000Z,183.70
2023-03-01T19:01:08.346Z,214.33
2023-03-01T19:03:36.131Z,148.73
2023-03-01T19:06:05.184Z,138.53
2023-03-01T19:08:32.438Z,185.27
2023-03-01T19:11:00.517Z,244.63
2023-03-01T19:13:29.223Z,228.23
2023-03-01T19:16:03.561Z,228.33
2023-03-01T19:18:30.778Z,230.03
2023-03-01T19:21:03.824Z,192.83
2023-03-01T19:23:34.842Z,141.73
2023-03-01T19:26:03.214Z,129.67
2023-03-01T19:28:31.775Z,124.23
2023-03-01T19:31:19.317Z,108.90
2023-03-01T19:33:46.620Z,134.30
2023-03-01T19:36:14.596Z,109.13
2023-03-01T19:38:42.147Z,109.13
2023-03-01T19:41:10.299Z,152.37
2023-03-01T19:43:37.499Z,141.10
2023-03-01T19:46:06.073Z,159.73
2023-03-01T19:48:36.579Z,168.07
2023-03-01T19:51:05.136Z,241.03
2023-03-01T19:53:32.357Z,265.07
2023-03-01T19:56:00.218Z,257.63
2023-03-01T19:58:29.591Z,223.20
2023-03-01T20:01:00.863Z,209.43
2023-03-01T20:03:32.338Z,196.57
2023-03-01T20:06:02.574Z,149.50
2023-03-01T20:08:30.606Z,140.20
2023-03-01T20:11:04.527Z,142.33
2023-03-01T20:13:31.828Z,175.10
2023-03-01T20:16:00.503Z,152.83
2023-03-01T20:18:27.865Z,204.73
2023-03-01T20:20:55.048Z,305.10
2023-03-01T20:23:23.544Z,266.03
2023-03-01T20:25:50.900Z,178.13
2023-03-01T20:28:18.482Z,122.87
2023-03-01T20:30:47.942Z,114.83
2023-03-01T20:33:16.155Z,134.00
2023-03-01T20:35:43.554Z,157.93
2023-03-01T20:38:10.760Z,176.33
2023-03-01T20:40:38.241Z,229.07
2023-03-01T20:43:08.213Z,286.80
2023-03-01T20:45:38.857Z,319.00
2023-03-01T20:48:07.453Z,242.00
2023-03-01T20:50:34.632Z,285.33
2023-03-01T20:53:02.346Z,218.60
2023-03-01T20:55:29.493Z,311.10
2023-03-01T20:57:57.275Z,336.63
2023-03-01T21:00:24.512Z,347.97
2023-03-01T21:02:52.217Z,312.93
2023-03-01T21:05:31.621Z,313.37
2023-03-01T21:08:01.150Z,333.27
2023-03-01T21:10:30.523Z,315.23
2023-03-01T21:12:58.332Z,226.97
2023-03-01T21:15:29.293Z,231.97
2023-03-01T21:17:57.542Z,203.97
2023-03-01T21:20:24.712Z,198.03
2023-03-01T21:22:51.889Z,179.20
2023-03-01T21:25:19.072Z,224.10
2023-03-01T21:27:46.245Z,309.63
2023-03-01T21:30:14.189Z,335.07
2023-03-01T21:32:41.425Z,313.73
2023-03-01T21:35:08.824Z,342.33
2023-03-01T21:37:36.095Z,435.27
2023-03-01T21:40:04.401Z,340.93
2023-03-01T21:42:33.292Z,267.33
2023-03-01T21:45:00.461Z,256.90
2023-03-01T21:47:27.653Z,262.37
2023-03-01T21:49:54.800Z,270.13
2023-03-01T21:52:21.976Z,267.63
2023-03-01T21:54:51.241Z,242.27
2023-03-01T21:57:18.408Z,225.50
2023-03-01T21:59:46.862Z,215.73
2023-03-01T22:02:17.328Z,222.43
2023-03-01T22:04:45.367Z,208.23
2023-03-01T22:07:12.505Z,174.30
2023-03-01T22:09:39.745Z,191.50
2023-03-01T22:12:06.993Z,191.50
2023-03-01T22:14:35.026Z,212.77
2023-03-01T22:17:02.369Z,190.73
2023-03-01T22:19:30.235Z,147.73
2023-03-01T22:21:57.470Z,143.60
2023-03-01T22:24:25.205Z,205.20
2023-03-01T22:26:52.536Z,184.27
2023-03-01T22:29:26.699Z,205.27
2023-03-01T22:31:54.305Z,181.10
2023-03-01T22:34:21.718Z,186.03
2023-03-01T22:36:49.125Z,129.63
2023-03-01T22:39:16.935Z,205.63
2023-03-01T22:41:45.625Z,218.70
2023-03-01T22:44:13.458Z,216.97
2023-03-01T22:46:40.700Z,207.53
2023-03-01T22:49:07.934Z,244.23
2023-03-01T22:51:35.971Z,238.17
2023-03-01T22:54:03.165Z,221.23
2023-03-01T22:56:31.411Z,263.13
2023-03-01T22:58:59.410Z,234.23
2023-03-01T23:01:26.647Z,196.33
2023-03-01T23:03:53.857Z,216.27
2023-03-01T23:06:21.178Z,196.20
2023-03-01T23:08:51.699Z,196.70
2023-03-01T23:11:19.138Z,203.87
2023-03-01T23:13:46.331Z,171.70
2023-03-01T23:16:13.450Z,189.80
2023-03-01T23:18:40.704Z,188.17
2023-03-01T23:21:11.767Z,187.00
2023-03-01T23:23:39.010Z,203.37
2023-03-01T23:26:06.141Z,209.03
2023-03-01T23:28:33.483Z,204.37
2023-03-01T23:31:01.555Z,171.27
2023-03-01T23:33:28.810Z,184.80
2023-03-01T23:35:56.018Z,174.47
2023-03-01T23:38:23.237Z,167.17
2023-03-01T23:40:50.368Z,144.57
2023-03-01T23:43:17.541Z,156.30
2023-03-01T23:45:44.763Z,148.90
2023-03-01T23:48:12.466Z,127.97
2023-03-01T23:50:42.331Z,135.47
2023-03-01T23:53:10.432Z,118.87
2023-03-01T23:55:37.899Z,115.87
2023-03-01T23:58:05.444Z,116.70
